createdAt,value
2018-07-30T00:01:15.081Z,3.40
2018-07-30T00:04:19.348Z,3.73
2018-07-30T00:07:23.556Z,3.70
2018-07-30T00:10:27.768Z,3.70
2018-07-30T00:13:32.000Z,3.63
2018-07-30T00:16:36.256Z,3.73
2018-07-30T00:19:40.501Z,4.03
2018-07-30T00:22:44.728Z,4.47
2018-07-30T00:25:49.016Z,4.67
2018-07-30T00:28:53.409Z,4.60
2018-07-30T00:31:57.652Z,4.70
2018-07-30T00:35:01.935Z,4.37
2018-07-30T00:38:06.169Z,4.57
2018-07-30T00:41:10.172Z,4.57
2018-07-30T00:44:14.448Z,4.37
2018-07-30T00:47:18.684Z,3.60
2018-07-30T00:50:22.963Z,4.20
2018-07-30T00:53:27.221Z,4.33
2018-07-30T00:56:31.494Z,4.33
2018-07-30T00:59:35.732Z,4.30
2018-07-30T01:02:39.961Z,4.80
2018-07-30T01:05:44.334Z,4.70
2018-07-30T01:08:48.651Z,4.43
2018-07-30T01:11:52.900Z,4.87
2018-07-30T01:14:57.242Z,3.87
2018-07-30T01:18:01.466Z,5.13
2018-07-30T01:21:05.712Z,4.87
2018-07-30T01:24:09.956Z,5.03
2018-07-30T01:27:14.216Z,5.60
2018-07-30T01:30:18.465Z,5.23
2018-07-30T01:33:22.713Z,4.97
2018-07-30T01:36:26.921Z,5.27
2018-07-30T01:39:31.177Z,4.60
2018-07-30T01:42:35.695Z,4.67
2018-07-30T01:45:39.968Z,4.83
2018-07-30T01:48:44.202Z,5.13
2018-07-30T01:51:48.429Z,4.87
2018-07-30T01:54:53.140Z,4.63
2018-07-30T01:57:57.473Z,4.17
2018-07-30T02:01:01.725Z,4.07
2018-07-30T02:04:05.964Z,4.50
2018-07-30T02:07:10.302Z,4.43
2018-07-30T02:10:14.545Z,4.70
2018-07-30T02:13:18.792Z,4.80
2018-07-30T02:16:23.030Z,5.13
2018-07-30T02:19:27.293Z,4.90
2018-07-30T02:22:31.516Z,4.33
2018-07-30T02:25:35.826Z,4.63
2018-07-30T02:28:40.084Z,4.73
2018-07-30T02:31:44.316Z,4.37
2018-07-30T02:34:48.601Z,5.03
2018-07-30T02:37:52.849Z,5.27
2018-07-30T02:40:57.151Z,4.83
2018-07-30T02:44:01.382Z,4.80
2018-07-30T02:47:05.644Z,4.90
2018-07-30T02:50:09.877Z,4.73
2018-07-30T02:53:14.131Z,4.67
2018-07-30T02:56:18.419Z,5.00
2018-07-30T02:59:22.647Z,5.30
2018-07-30T03:02:26.939Z,4.93
2018-07-30T03:05:31.186Z,4.97
2018-07-30T03:08:35.520Z,5.27
2018-07-30T03:11:40.441Z,5.70
2018-07-30T03:14:44.840Z,5.03
2018-07-30T03:17:49.307Z,5.47
2018-07-30T03:20:53.584Z,5.63
2018-07-30T03:23:57.872Z,5.33
2018-07-30T03:27:02.125Z,5.20
2018-07-30T03:30:08.838Z,5.23
2018-07-30T03:33:13.109Z,6.00
2018-07-30T03:36:17.375Z,7.20
2018-07-30T03:39:21.591Z,7.20
2018-07-30T03:42:25.868Z,6.77
2018-07-30T03:45:30.088Z,6.80
2018-07-30T03:48:34.349Z,6.77
2018-07-30T03:51:38.628Z,6.47
2018-07-30T03:54:42.925Z,6.40
2018-07-30T03:57:47.213Z,7.00
2018-07-30T04:00:51.473Z,6.83
2018-07-30T04:03:55.924Z,6.57
2018-07-30T04:07:00.181Z,6.77
2018-07-30T04:10:04.529Z,6.20
2018-07-30T04:13:08.824Z,7.07
2018-07-30T04:16:13.049Z,6.20
2018-07-30T04:19:17.357Z,5.67
2018-07-30T04:22:21.576Z,6.67
2018-07-30T04:25:25.830Z,6.97
2018-07-30T04:28:30.089Z,7.33
2018-07-30T04:31:34.457Z,6.63
2018-07-30T04:34:38.689Z,7.03
2018-07-30T04:37:42.981Z,7.33
2018-07-30T04:40:47.228Z,6.63
2018-07-30T04:43:51.575Z,6.50
2018-07-30T04:46:55.760Z,6.50
2018-07-30T04:50:00.065Z,6.30
2018-07-30T04:53:04.325Z,6.90
2018-07-30T04:56:08.596Z,7.37
2018-07-30T04:59:12.843Z,6.63
2018-07-30T05:02:17.105Z,6.17
2018-07-30T05:05:21.365Z,7.30
2018-07-30T05:08:25.629Z,7.73
2018-07-30T05:11:29.870Z,7.50
2018-07-30T05:14:34.115Z,7.03
2018-07-30T05:17:38.357Z,7.40
2018-07-30T05:20:42.629Z,6.80
2018-07-30T05:23:46.902Z,7.03
2018-07-30T05:26:51.152Z,6.20
2018-07-30T05:29:55.378Z,6.70
2018-07-30T05:32:59.637Z,6.50
2018-07-30T05:36:03.869Z,6.97
2018-07-30T05:39:10.321Z,6.67
2018-07-30T05:42:14.594Z,7.50
2018-07-30T05:45:18.830Z,7.90
2018-07-30T05:48:23.077Z,8.27
2018-07-30T05:51:27.360Z,7.63
2018-07-30T05:54:31.597Z,7.83
2018-07-30T05:57:35.877Z,8.77
2018-07-30T06:00:40.114Z,7.53
2018-07-30T06:03:44.375Z,6.60
2018-07-30T06:06:48.665Z,7.90
2018-07-30T06:09:52.895Z,6.80
2018-07-30T06:12:57.192Z,7.37
2018-07-30T06:16:01.461Z,7.83
2018-07-30T06:19:05.786Z,7.13
2018-07-30T06:22:10.053Z,7.47
2018-07-30T06:25:14.333Z,8.20
2018-07-30T06:28:18.607Z,7.20
2018-07-30T06:31:22.872Z,7.20
2018-07-30T06:34:27.145Z,7.57
2018-07-30T06:37:31.460Z,7.20
2018-07-30T06:40:35.696Z,7.23
2018-07-30T06:43:39.989Z,8.03
2018-07-30T06:46:44.243Z,7.27
2018-07-30T06:49:48.521Z,6.90
2018-07-30T06:52:52.788Z,7.03
2018-07-30T06:55:57.098Z,6.83
2018-07-30T06:59:01.369Z,7.87
2018-07-30T07:02:05.861Z,6.57
2018-07-30T07:05:11.361Z,7.40
2018-07-30T07:08:15.656Z,6.97
2018-07-30T07:11:19.950Z,6.80
2018-07-30T07:14:24.251Z,6.47
2018-07-30T07:17:28.527Z,6.27
2018-07-30T07:20:32.870Z,6.50
2018-07-30T07:23:37.144Z,5.90
2018-07-30T07:26:41.429Z,5.17
2018-07-30T07:29:45.726Z,5.67
2018-07-30T07:32:49.997Z,6.50
2018-07-30T07:35:54.374Z,6.53
2018-07-30T07:38:58.620Z,6.63
2018-07-30T07:42:02.945Z,6.70
2018-07-30T07:45:07.745Z,6.27
2018-07-30T07:48:12.064Z,6.33
2018-07-30T07:51:16.334Z,6.27
2018-07-30T07:54:20.617Z,6.20
2018-07-30T07:57:25.221Z,6.33
2018-07-30T08:00:29.522Z,6.43
2018-07-30T08:03:33.786Z,5.63
2018-07-30T08:06:38.105Z,5.00
2018-07-30T08:09:42.417Z,4.70
2018-07-30T08:12:46.701Z,5.27
2018-07-30T08:15:51.005Z,5.73
2018-07-30T08:18:55.257Z,5.20
2018-07-30T08:21:59.542Z,4.83
2018-07-30T08:25:03.633Z,4.43
2018-07-30T08:28:07.890Z,3.57
2018-07-30T08:31:12.185Z,4.40
2018-07-30T08:34:16.502Z,4.53
2018-07-30T08:37:20.797Z,4.53
2018-07-30T08:40:25.093Z,4.40
2018-07-30T08:43:29.402Z,4.23
2018-07-30T08:46:33.780Z,3.60
2018-07-30T08:49:38.052Z,3.53
2018-07-30T08:52:42.386Z,3.40
2018-07-30T08:55:46.672Z,3.80
2018-07-30T08:58:51.364Z,3.27
2018-07-30T09:01:55.368Z,4.20
2018-07-30T09:04:59.625Z,3.50
2018-07-30T09:08:03.924Z,3.47
2018-07-30T09:11:08.193Z,3.17
2018-07-30T09:14:12.464Z,2.87
2018-07-30T09:17:16.789Z,2.70
2018-07-30T09:20:20.816Z,2.50
2018-07-30T09:23:25.115Z,2.20
2018-07-30T09:26:29.357Z,2.43
2018-07-30T09:29:33.596Z,2.30
2018-07-30T09:32:37.853Z,2.13
2018-07-30T09:35:42.133Z,2.23
2018-07-30T09:38:46.484Z,1.90
2018-07-30T09:41:50.709Z,2.30
2018-07-30T09:44:55.028Z,2.70
2018-07-30T09:47:59.442Z,2.80
2018-07-30T09:51:03.729Z,2.60
2018-07-30T09:54:08.079Z,2.87
2018-07-30T09:57:12.329Z,2.93
2018-07-30T10:00:20.699Z,3.00
2018-07-30T10:03:24.977Z,2.90
2018-07-30T10:06:29.310Z,2.50
2018-07-30T10:09:33.589Z,2.10
2018-07-30T10:12:37.858Z,2.27
2018-07-30T10:15:42.124Z,1.90
2018-07-30T10:18:46.426Z,2.10
2018-07-30T10:21:50.705Z,2.20
2018-07-30T10:24:54.988Z,2.90
2018-07-30T10:27:59.317Z,3.00
2018-07-30T10:31:03.617Z,3.50
2018-07-30T10:34:07.878Z,3.40
2018-07-30T10:37:12.161Z,3.10
2018-07-30T10:40:16.489Z,3.73
2018-07-30T10:43:20.701Z,2.60
2018-07-30T10:46:25.019Z,3.30
2018-07-30T10:49:29.285Z,2.73
2018-07-30T10:52:33.608Z,2.97
2018-07-30T10:55:37.877Z,1.87
2018-07-30T10:58:42.221Z,2.10
2018-07-30T11:01:46.264Z,1.63
2018-07-30T11:04:50.540Z,1.83
2018-07-30T11:07:54.835Z,1.27
2018-07-30T11:10:59.081Z,1.77
2018-07-30T11:14:03.350Z,1.30
2018-07-30T11:17:07.644Z,1.63
2018-07-30T11:20:11.941Z,1.63
2018-07-30T11:23:16.236Z,1.90
2018-07-30T11:26:20.486Z,1.90
2018-07-30T11:29:24.764Z,1.43
2018-07-30T11:32:29.086Z,1.77
2018-07-30T11:35:33.397Z,1.70
2018-07-30T11:38:37.677Z,1.30
2018-07-30T11:41:42.226Z,1.00
2018-07-30T11:44:46.476Z,1.43
2018-07-30T11:47:50.753Z,1.50
2018-07-30T11:50:55.014Z,1.10
2018-07-30T11:53:59.324Z,1.40
2018-07-30T11:57:03.554Z,1.57
2018-07-30T12:00:08.060Z,1.30
2018-07-30T12:03:12.335Z,1.30
2018-07-30T12:06:16.608Z,1.30
2018-07-30T12:09:20.896Z,1.57
2018-07-30T12:12:25.191Z,1.33
2018-07-30T12:15:29.469Z,1.30
2018-07-30T12:18:33.730Z,1.10
2018-07-30T12:21:38.072Z,1.30
2018-07-30T12:24:42.359Z,1.20
2018-07-30T12:27:46.621Z,1.30
2018-07-30T12:30:50.917Z,1.37
2018-07-30T12:33:55.547Z,1.47
2018-07-30T12:36:59.785Z,1.50
2018-07-30T12:40:04.091Z,1.40
2018-07-30T12:43:08.356Z,1.40
2018-07-30T12:46:12.670Z,1.37
2018-07-30T12:49:16.973Z,1.40
2018-07-30T12:52:21.257Z,1.27
2018-07-30T12:55:25.596Z,1.70
2018-07-30T12:58:29.865Z,1.90
2018-07-30T13:01:34.174Z,1.70
2018-07-30T13:04:38.440Z,1.67
2018-07-30T13:07:42.755Z,1.83
2018-07-30T13:10:47.037Z,1.40
2018-07-30T13:13:51.412Z,1.13
2018-07-30T13:16:55.621Z,1.00
2018-07-30T13:20:00.025Z,0.70
2018-07-30T13:23:04.078Z,0.97
2018-07-30T13:26:08.324Z,1.10
2018-07-30T13:29:13.340Z,0.80
2018-07-30T13:32:17.576Z,0.70
2018-07-30T13:35:21.842Z,0.93
2018-07-30T13:38:26.091Z,0.80
2018-07-30T13:41:30.326Z,1.00
2018-07-30T13:44:34.634Z,0.83
2018-07-30T13:47:38.937Z,1.20
2018-07-30T13:50:43.152Z,1.23
2018-07-30T13:53:47.353Z,1.00
2018-07-30T13:56:51.590Z,0.97
2018-07-30T13:59:55.850Z,1.30
2018-07-30T14:03:00.063Z,1.17
2018-07-30T14:06:04.421Z,1.00
2018-07-30T14:09:11.130Z,1.37
2018-07-30T14:12:15.381Z,1.13
2018-07-30T14:15:19.657Z,1.23
2018-07-30T14:18:23.941Z,1.20
2018-07-30T14:21:28.164Z,1.20
2018-07-30T14:24:32.409Z,1.07
2018-07-30T14:27:36.636Z,1.40
2018-07-30T14:30:40.909Z,1.23
2018-07-30T14:33:45.151Z,1.03
2018-07-30T14:36:49.500Z,1.50
2018-07-30T14:39:54.034Z,1.40
2018-07-30T14:42:58.292Z,1.63
2018-07-30T14:46:02.556Z,1.43
2018-07-30T14:49:06.809Z,1.70
2018-07-30T14:52:11.065Z,1.27
2018-07-30T14:55:15.339Z,1.47
2018-07-30T14:58:19.597Z,1.47
2018-07-30T15:01:23.909Z,1.10
2018-07-30T15:04:28.226Z,1.40
2018-07-30T15:07:32.529Z,1.87
2018-07-30T15:10:36.868Z,1.40
2018-07-30T15:13:41.138Z,1.37
2018-07-30T15:16:45.435Z,1.50
2018-07-30T15:19:49.714Z,1.60
2018-07-30T15:22:54.017Z,1.90
2018-07-30T15:25:58.273Z,1.10
2018-07-30T15:29:02.586Z,1.60
2018-07-30T15:32:07.032Z,1.43
2018-07-30T15:35:11.265Z,1.70
2018-07-30T15:38:15.457Z,1.83
2018-07-30T15:41:19.708Z,1.50
2018-07-30T15:44:23.900Z,1.23
2018-07-30T15:47:28.141Z,1.30
2018-07-30T15:50:32.336Z,1.30
2018-07-30T15:53:36.597Z,1.43
2018-07-30T15:56:40.969Z,1.60
2018-07-30T15:59:45.198Z,1.50
2018-07-30T16:02:49.452Z,1.50
2018-07-30T16:05:53.769Z,0.90
2018-07-30T16:08:57.985Z,1.33
2018-07-30T16:12:02.187Z,1.60
2018-07-30T16:15:08.139Z,1.27
2018-07-30T16:18:12.370Z,1.13
2018-07-30T16:21:16.584Z,1.10
2018-07-30T16:24:20.772Z,1.10
2018-07-30T16:27:25.073Z,1.10
2018-07-30T16:30:29.302Z,1.20
2018-07-30T16:33:33.557Z,1.40
2018-07-30T16:36:37.796Z,1.10
2018-07-30T16:39:42.012Z,1.10
2018-07-30T16:42:46.298Z,1.33
2018-07-30T16:45:50.544Z,1.13
2018-07-30T16:48:54.770Z,1.20
2018-07-30T16:51:58.993Z,1.50
2018-07-30T16:55:03.245Z,1.40
2018-07-30T16:58:07.481Z,1.20
2018-07-30T17:01:11.736Z,1.37
2018-07-30T17:04:15.978Z,1.60
2018-07-30T17:07:20.229Z,1.40
2018-07-30T17:10:24.460Z,1.27
2018-07-30T17:13:28.766Z,1.50
2018-07-30T17:16:33.061Z,1.60
2018-07-30T17:19:37.355Z,1.30
2018-07-30T17:22:42.363Z,1.53
2018-07-30T17:25:46.616Z,1.30
2018-07-30T17:28:50.863Z,1.43
2018-07-30T17:31:55.092Z,1.27
2018-07-30T17:34:59.277Z,1.93
2018-07-30T17:38:03.517Z,2.90
2018-07-30T17:41:07.511Z,3.20
2018-07-30T17:44:11.733Z,2.97
2018-07-30T17:47:15.924Z,2.87
2018-07-30T17:50:20.131Z,2.40
2018-07-30T17:53:24.341Z,2.27
2018-07-30T17:56:28.573Z,2.20
2018-07-30T17:59:32.752Z,1.97
2018-07-30T18:02:36.948Z,2.30
2018-07-30T18:05:41.165Z,2.40
2018-07-30T18:08:45.372Z,2.93
2018-07-30T18:11:49.606Z,2.83
2018-07-30T18:14:53.819Z,2.90
2018-07-30T18:17:58.018Z,2.53
2018-07-30T18:21:02.237Z,2.77
2018-07-30T18:24:06.465Z,2.93
2018-07-30T18:27:10.642Z,3.37
2018-07-30T18:30:14.838Z,3.27
2018-07-30T18:33:19.030Z,3.20
2018-07-30T18:36:23.242Z,4.00
2018-07-30T18:39:27.467Z,3.97
2018-07-30T18:42:31.673Z,4.27
2018-07-30T18:45:35.881Z,3.90
2018-07-30T18:48:40.101Z,3.50
2018-07-30T18:51:44.293Z,4.30
2018-07-30T18:54:48.561Z,4.80
2018-07-30T18:57:52.760Z,4.63
2018-07-30T19:00:56.968Z,4.57
2018-07-30T19:04:01.148Z,4.10
2018-07-30T19:07:05.372Z,4.23
2018-07-30T19:10:09.565Z,4.63
2018-07-30T19:13:13.804Z,4.03
2018-07-30T19:16:18.010Z,4.40
2018-07-30T19:19:22.956Z,4.47
2018-07-30T19:22:27.158Z,4.20
2018-07-30T19:25:31.389Z,4.63
2018-07-30T19:28:35.592Z,4.57
2018-07-30T19:31:39.794Z,4.50
2018-07-30T19:34:43.800Z,4.43
2018-07-30T19:37:48.005Z,4.50
2018-07-30T19:40:52.217Z,4.37
2018-07-30T19:43:56.479Z,5.13
2018-07-30T19:47:00.678Z,4.50
2018-07-30T19:50:05.032Z,5.03
2018-07-30T19:53:09.245Z,5.20
2018-07-30T19:56:13.457Z,5.50
2018-07-30T19:59:17.681Z,5.47
2018-07-30T20:02:21.880Z,4.70
2018-07-30T20:05:26.076Z,4.87
2018-07-30T20:08:30.304Z,4.53
2018-07-30T20:11:34.529Z,4.60
2018-07-30T20:14:38.746Z,4.60
2018-07-30T20:17:43.000Z,4.33
2018-07-30T20:20:47.180Z,4.40
2018-07-30T20:23:51.380Z,4.27
2018-07-30T20:26:55.579Z,4.17
2018-07-30T20:29:59.800Z,4.23
2018-07-30T20:33:04.018Z,4.40
2018-07-30T20:36:08.213Z,4.10
2018-07-30T20:39:12.428Z,4.43
2018-07-30T20:42:16.634Z,4.00
2018-07-30T20:45:20.865Z,3.87
2018-07-30T20:48:25.065Z,4.47
2018-07-30T20:51:29.272Z,4.13
2018-07-30T20:54:33.501Z,3.97
2018-07-30T20:57:37.693Z,4.33
2018-07-30T21:00:41.913Z,3.77
2018-07-30T21:03:46.106Z,4.00
2018-07-30T21:06:50.106Z,4.10
2018-07-30T21:09:54.313Z,4.03
2018-07-30T21:12:58.537Z,4.00
2018-07-30T21:16:02.768Z,4.03
2018-07-30T21:19:06.992Z,4.13
2018-07-30T21:22:11.185Z,3.90
2018-07-30T21:25:15.416Z,4.07
2018-07-30T21:28:19.619Z,4.20
2018-07-30T21:31:23.812Z,4.33
2018-07-30T21:34:28.077Z,4.33
2018-07-30T21:37:32.294Z,3.80
2018-07-30T21:40:36.493Z,4.30
2018-07-30T21:43:40.694Z,4.17
2018-07-30T21:46:44.890Z,4.23
2018-07-30T21:49:49.093Z,4.00
2018-07-30T21:52:53.296Z,4.10
2018-07-30T21:55:57.525Z,4.13
2018-07-30T21:59:01.730Z,4.07
2018-07-30T22:02:06.289Z,4.40
2018-07-30T22:05:14.600Z,4.20
2018-07-30T22:08:18.838Z,4.40
2018-07-30T22:11:23.045Z,4.27
2018-07-30T22:14:27.245Z,4.33
2018-07-30T22:17:31.452Z,4.20
2018-07-30T22:20:35.675Z,4.37
2018-07-30T22:23:39.896Z,4.90
2018-07-30T22:26:44.109Z,4.53
2018-07-30T22:29:48.336Z,4.80
2018-07-30T22:32:52.512Z,5.10
2018-07-30T22:35:56.745Z,5.83
2018-07-30T22:39:00.961Z,6.30
2018-07-30T22:42:04.949Z,6.97
2018-07-30T22:45:09.169Z,7.70
2018-07-30T22:48:13.368Z,7.93
2018-07-30T22:51:17.597Z,7.60
2018-07-30T22:54:21.814Z,7.90
2018-07-30T22:57:26.013Z,8.13
2018-07-30T23:00:30.253Z,8.00
2018-07-30T23:03:34.476Z,8.17
2018-07-30T23:06:38.724Z,8.27
2018-07-30T23:09:42.951Z,8.07
2018-07-30T23:12:47.160Z,7.57
2018-07-30T23:15:51.392Z,7.50
2018-07-30T23:18:55.764Z,8.23
2018-07-30T23:21:59.960Z,8.57
2018-07-30T23:25:04.200Z,8.73
2018-07-30T23:28:08.428Z,9.33
2018-07-30T23:31:12.636Z,10.20
2018-07-30T23:34:16.841Z,9.67
2018-07-30T23:37:21.157Z,10.37
2018-07-30T23:40:25.253Z,9.37
2018-07-30T23:43:30.291Z,9.83
2018-07-30T23:46:34.509Z,10.10
2018-07-30T23:49:38.761Z,8.87
2018-07-30T23:52:42.941Z,10.07
2018-07-30T23:55:47.149Z,9.77
2018-07-30T23:58:51.384Z,8.80
